page 5539 of 1003898 registered users

eBook PostsUsers

  1. 0jellypeanut9 registered @ 2013-01-21 11:50:20, last login @ 2013-01-21 11:50:20
  2. 0branch37side registered @ 2013-01-21 11:50:43, last login @ 2013-01-21 11:50:43
  3. 0nest9bamboo registered @ 2013-01-21 11:51:07, last login @ 2013-01-21 11:51:07
  4. 0beech8magic registered @ 2013-01-21 11:51:56, last login @ 2013-01-21 11:51:56
  5. 0italyfight14 registered @ 2013-01-21 11:52:28, last login @ 2013-01-21 11:52:28
  6. 0turncoat14 registered @ 2013-01-21 11:52:29, last login @ 2013-01-21 11:52:29
  7. 0case9flight registered @ 2013-01-21 11:53:13, last login @ 2013-01-21 11:53:13
  8. 0vacuumbook99 registered @ 2013-01-21 11:53:35, last login @ 2013-01-21 11:53:35
  9. 0verse20novel registered @ 2013-01-21 11:54:27, last login @ 2013-01-21 11:54:27
  10. 0goal4stitch registered @ 2013-01-21 11:54:29, last login @ 2013-01-21 11:54:29
  11. 0gauge6lyric registered @ 2013-01-21 11:54:50, last login @ 2013-01-21 11:54:50
  12. 0archer2male registered @ 2013-01-21 11:55:30, last login @ 2013-01-21 11:55:30
  13. 0beammaid42 registered @ 2013-01-21 11:57:37, last login @ 2013-01-21 11:57:37
  14. 0tax91attack registered @ 2013-01-21 11:57:52, last login @ 2013-01-21 11:57:52
  15. 0heatcloudy17 registered @ 2013-01-21 11:58:02, last login @ 2013-01-21 11:58:02
  16. 0monday2crowd registered @ 2013-01-21 11:58:27, last login @ 2013-01-21 11:58:27
  17. 0mousebutane5 registered @ 2013-01-21 11:58:50, last login @ 2013-01-21 11:58:50
  18. 0eightcomic44 registered @ 2013-01-21 11:59:00, last login @ 2013-01-21 11:59:00
  19. 0butane4carbon registered @ 2013-01-21 11:59:55, last login @ 2013-01-21 11:59:55
  20. 0bailkitty7 registered @ 2013-01-21 12:00:00, last login @ 2013-01-21 12:00:00
  21. 0event3whip registered @ 2013-01-21 12:00:45, last login @ 2013-01-21 12:00:45
  22. 0moat9bean registered @ 2013-01-21 12:01:10, last login @ 2013-01-21 12:01:10
  23. 0resultchild4 registered @ 2013-01-21 12:02:13, last login @ 2013-01-21 12:53:37
  24. 0news3regret registered @ 2013-01-21 12:02:40, last login @ 2013-01-21 12:23:00
  25. 0edgeclose66 registered @ 2013-01-21 12:04:31, last login @ 2013-01-21 12:04:31
  26. 0ramiepatch6 registered @ 2013-01-21 12:05:16, last login @ 2013-01-21 12:27:56
  27. 0viewpin88 registered @ 2013-01-21 12:05:30, last login @ 2013-01-21 12:05:30
  28. 0pastorrocket01 registered @ 2013-01-21 12:05:44, last login @ 2013-01-21 12:05:44
  29. 0cloth7skate registered @ 2013-01-21 12:06:03, last login @ 2013-01-21 12:06:03
  30. 0phonesteam3 registered @ 2013-01-21 12:06:05, last login @ 2013-01-21 12:06:05
  31. 0cirrushot40 registered @ 2013-01-21 12:06:36, last login @ 2013-01-21 12:06:36
  32. 0calfhot2 registered @ 2013-01-21 12:07:14, last login @ 2013-01-21 12:07:14
  33. 0gas58screw registered @ 2013-01-21 12:07:23, last login @ 2013-01-21 12:07:23
  34. 0washer9secure registered @ 2013-01-21 12:08:11, last login @ 2013-01-21 12:08:11
  35. 0plane7jam registered @ 2013-01-21 12:08:17, last login @ 2013-01-21 12:08:17
  36. 0slip49couch registered @ 2013-01-21 12:08:38, last login @ 2013-01-21 12:08:38
  37. 0sign33canoe registered @ 2013-01-21 12:08:39, last login @ 2013-01-21 12:08:39
  38. 0horn07peen registered @ 2013-01-21 12:09:33, last login @ 2013-01-21 12:09:33
  39. 0joke49skiing registered @ 2013-01-21 12:10:22, last login @ 2013-01-21 12:20:51
  40. 0roof25bay registered @ 2013-01-21 12:10:34, last login @ 2013-01-21 12:10:34
  41. 0wealth9join registered @ 2013-01-21 12:12:00, last login @ 2013-01-21 12:55:26
  42. 0milebeef9 registered @ 2013-01-21 12:13:27, last login @ 2013-01-21 12:13:27
  43. 0glue7church registered @ 2013-01-21 12:13:39, last login @ 2013-01-21 12:13:39
  44. 0cirrus56farm registered @ 2013-01-21 12:14:13, last login @ 2013-01-21 12:14:13
  45. 0close31period registered @ 2013-01-21 12:14:54, last login @ 2013-01-21 12:51:45
  46. 0gunbeetle90 registered @ 2013-01-21 12:16:25, last login @ 2013-01-21 12:16:25
  47. 0box56alley registered @ 2013-01-21 12:16:39, last login @ 2013-01-21 12:16:39
  48. 0heatbrake55 registered @ 2013-01-21 12:17:06, last login @ 2013-01-21 12:17:06
  49. 0dinghyweapon85 registered @ 2013-01-21 12:17:10, last login @ 2013-01-21 12:17:10
  50. 0aries9emery registered @ 2013-01-21 12:17:15, last login @ 2013-01-21 13:00:32
  51. 0orange11mirror registered @ 2013-01-21 12:18:45, last login @ 2013-01-21 12:18:45
  52. 0trialsushi45 registered @ 2013-01-21 12:18:59, last login @ 2013-01-21 12:18:59
  53. 0cannonaction2 registered @ 2013-01-21 12:21:21, last login @ 2013-01-21 12:21:21
  54. 0cutdamage00 registered @ 2013-01-21 12:21:32, last login @ 2013-01-21 12:21:32
  55. 0doubt3domain registered @ 2013-01-21 12:22:08, last login @ 2013-01-21 12:22:08
  56. 0time46sneeze registered @ 2013-01-21 12:22:37, last login @ 2013-01-21 12:22:37
  57. 0africahall6 registered @ 2013-01-21 12:23:29, last login @ 2013-01-21 12:23:29
  58. 0book0bun registered @ 2013-01-21 12:23:38, last login @ 2013-01-21 12:23:38
  59. 0zipperwood7 registered @ 2013-01-21 12:26:50, last login @ 2013-01-21 12:26:50
  60. 0deer9carbon registered @ 2013-01-21 12:26:59, last login @ 2013-01-21 12:26:59
  61. 0mark5flood registered @ 2013-01-21 12:27:15, last login @ 2013-01-21 12:27:15
  62. 0temple2uncle registered @ 2013-01-21 12:27:46, last login @ 2013-01-21 12:27:46
  63. 0Vanyce registered @ 2013-01-21 12:28:26, last login @ 2013-01-21 12:28:26
  64. 0applecoffee95 registered @ 2013-01-21 12:28:36, last login @ 2013-01-21 12:28:36
  65. 0cardrepair7 registered @ 2013-01-21 12:29:13, last login @ 2013-01-21 12:29:13
  66. 0atom0clerk registered @ 2013-01-21 12:29:40, last login @ 2013-01-21 12:29:40
  67. 0tanker5event registered @ 2013-01-21 12:30:24, last login @ 2013-01-21 12:30:24
  68. 0copper2buffer registered @ 2013-01-21 12:30:39, last login @ 2013-01-21 12:30:39
  69. 0seasonnut7 registered @ 2013-01-21 12:31:02, last login @ 2013-01-21 12:31:02
  70. 0reason5garden registered @ 2013-01-21 12:31:16, last login @ 2013-01-21 12:31:16
  71. 0yoke8yacht registered @ 2013-01-21 12:31:56, last login @ 2013-01-21 12:31:56
  72. 0Zorrozn registered @ 2013-01-21 12:32:08, last login @ 2013-01-21 12:32:08
  73. 0tubincome64 registered @ 2013-01-21 12:32:27, last login @ 2013-01-21 12:32:27
  74. 0brace7quail registered @ 2013-01-21 12:34:38, last login @ 2013-01-21 12:58:37
  75. 0spadewhip87 registered @ 2013-01-21 12:35:12, last login @ 2013-01-21 12:35:12
  76. 0jumrus92 registered @ 2013-01-21 12:36:08, last login @ 2013-01-21 12:36:08
  77. 0watch62laura registered @ 2013-01-21 12:36:57, last login @ 2013-01-21 12:36:57
  78. 0thronegrass1 registered @ 2013-01-21 12:37:25, last login @ 2013-01-21 12:37:25
  79. 0age8stem registered @ 2013-01-21 12:38:40, last login @ 2013-01-21 12:38:40
  80. 0ploughsale6 registered @ 2013-01-21 12:39:28, last login @ 2013-01-21 12:53:11
  81. 0vacuumbit4 registered @ 2013-01-21 12:39:35, last login @ 2013-01-21 12:39:35
  82. 0yeardonald4 registered @ 2013-01-21 12:39:44, last login @ 2013-01-21 12:39:44
  83. 0jutewitch9 registered @ 2013-01-21 12:40:05, last login @ 2013-01-21 12:40:05
  84. 0shoebelief9 registered @ 2013-01-21 12:40:07, last login @ 2013-01-21 12:40:07
  85. 0footmallet7 registered @ 2013-01-21 12:40:08, last login @ 2013-01-21 12:40:08
  86. 0Hotstuff registered @ 2013-01-21 12:40:18, last login @ 2013-01-21 12:40:18
  87. 0violet7cello registered @ 2013-01-21 12:40:36, last login @ 2013-01-21 12:40:36
  88. 0weaseltip6 registered @ 2013-01-21 12:41:03, last login @ 2013-01-21 12:41:03
  89. 0clauscrop22 registered @ 2013-01-21 12:41:05, last login @ 2013-01-21 12:41:05
  90. 0friend73sock registered @ 2013-01-21 12:41:07, last login @ 2013-01-21 12:41:07
  91. 0heliumstage4 registered @ 2013-01-21 12:41:22, last login @ 2013-01-21 12:41:22
  92. 0shockshadow3 registered @ 2013-01-21 12:42:43, last login @ 2013-01-21 12:42:43
  93. 0viola1degree registered @ 2013-01-21 12:44:54, last login @ 2013-01-21 12:44:54
  94. 0silver55sprout registered @ 2013-01-21 12:46:08, last login @ 2013-01-21 12:46:08
  95. 0idea4alibi registered @ 2013-01-21 12:46:11, last login @ 2013-01-21 12:46:11
  96. 0spider7paper registered @ 2013-01-21 12:46:20, last login @ 2013-01-21 12:46:20
  97. 0cart0flat registered @ 2013-01-21 12:48:15, last login @ 2013-01-21 12:48:15
  98. 0clerk3class registered @ 2013-01-21 12:48:23, last login @ 2013-01-21 12:48:23
  99. 0soccerghost97 registered @ 2013-01-21 12:48:59, last login @ 2013-01-21 12:48:59
  100. 0winefield47 registered @ 2013-01-21 12:49:23, last login @ 2013-01-21 12:49:23
  101. 0monkey1dimple registered @ 2013-01-21 12:49:58, last login @ 2013-01-21 12:49:58

More...

[5549] [5548] [5547] [5546] [5545] [5544] [5543] [5542] [5541] [5540] [5539] [5538] [5537] [5536] [5535] [5534] [5533] [5532] [5531] [5530] ...[1]
Back to Top